createdAt,value
2023-12-14T00:00:11.691Z,16.93
2023-12-14T00:02:44.634Z,15.13
2023-12-14T00:05:14.709Z,14.97
2023-12-14T00:07:44.549Z,12.80
2023-12-14T00:10:14.552Z,12.13
2023-12-14T00:12:44.385Z,12.17
2023-12-14T00:15:14.230Z,14.73
2023-12-14T00:17:46.717Z,12.87
2023-12-14T00:20:16.806Z,14.90
2023-12-14T00:22:46.617Z,16.13
2023-12-14T00:25:16.570Z,13.90
2023-12-14T00:27:46.386Z,13.80
2023-12-14T00:30:17.033Z,15.43
2023-12-14T00:32:49.518Z,16.87
2023-12-14T00:35:19.358Z,15.20
2023-12-14T00:37:49.170Z,13.20
2023-12-14T00:40:19.144Z,15.57
2023-12-14T00:42:49.019Z,12.70
2023-12-14T00:45:18.853Z,15.60
2023-12-14T00:47:51.256Z,12.70
2023-12-14T00:50:21.212Z,11.80
2023-12-14T00:52:51.103Z,16.73
2023-12-14T00:55:20.937Z,14.90
2023-12-14T00:57:50.744Z,13.83
2023-12-14T01:00:21.504Z,15.17
2023-12-14T01:02:53.919Z,13.33
2023-12-14T01:05:23.868Z,14.07
2023-12-14T01:07:53.801Z,14.30
2023-12-14T01:10:23.715Z,19.03
2023-12-14T01:12:53.634Z,16.70
2023-12-14T01:15:23.464Z,12.70
2023-12-14T01:17:55.900Z,12.90
2023-12-14T01:20:25.956Z,12.60
2023-12-14T01:22:55.840Z,12.50
2023-12-14T01:25:25.666Z,12.80
2023-12-14T01:27:55.456Z,12.97
2023-12-14T01:30:25.378Z,11.50
2023-12-14T01:32:57.845Z,12.63
2023-12-14T01:35:27.667Z,15.70
2023-12-14T01:37:57.525Z,12.00
2023-12-14T01:40:27.338Z,12.40
2023-12-14T01:42:57.159Z,13.73
2023-12-14T01:45:26.958Z,11.13
2023-12-14T01:47:59.442Z,11.70
2023-12-14T01:50:29.364Z,11.30
2023-12-14T01:52:59.324Z,11.40
2023-12-14T01:55:29.638Z,12.50
2023-12-14T01:57:59.429Z,10.97
2023-12-14T02:00:38.595Z,9.83
2023-12-14T02:03:10.996Z,9.83
2023-12-14T02:05:41.098Z,7.30
2023-12-14T02:08:11.147Z,9.43
2023-12-14T02:10:41.015Z,8.87
2023-12-14T02:13:10.901Z,11.07
2023-12-14T02:15:40.807Z,7.37
2023-12-14T02:18:13.393Z,9.50
2023-12-14T02:20:43.237Z,7.77
2023-12-14T02:23:15.691Z,9.73
2023-12-14T02:25:45.602Z,9.40
2023-12-14T02:28:15.538Z,8.73
2023-12-14T02:30:45.517Z,11.00
2023-12-14T02:33:15.531Z,14.27
2023-12-14T02:35:45.333Z,8.43
2023-12-14T02:38:17.831Z,9.73
2023-12-14T02:40:47.720Z,10.00
2023-12-14T02:43:17.537Z,9.20
2023-12-14T02:45:47.400Z,9.03
2023-12-14T02:48:17.291Z,10.17
2023-12-14T02:50:47.225Z,9.70
2023-12-14T02:53:22.443Z,9.13
2023-12-14T02:55:52.532Z,10.47
2023-12-14T02:58:22.777Z,10.17
2023-12-14T03:00:52.831Z,8.00
2023-12-14T03:03:22.633Z,8.93
2023-12-14T03:05:52.500Z,9.87
2023-12-14T03:08:24.970Z,10.40
2023-12-14T03:10:54.802Z,10.77
2023-12-14T03:13:24.626Z,10.80
2023-12-14T03:15:54.408Z,11.60
2023-12-14T03:18:24.346Z,13.87
2023-12-14T03:20:54.209Z,10.60
2023-12-14T03:23:26.707Z,11.13
2023-12-14T03:25:56.532Z,9.40
2023-12-14T03:28:26.368Z,10.70
2023-12-14T03:30:56.317Z,14.90
2023-12-14T03:33:26.251Z,11.43
2023-12-14T03:35:56.063Z,12.07
2023-12-14T03:38:28.436Z,10.40
2023-12-14T03:40:58.307Z,10.40
2023-12-14T03:43:28.157Z,11.17
2023-12-14T03:45:57.961Z,8.90
2023-12-14T03:48:27.841Z,9.23
2023-12-14T03:50:57.729Z,10.20
2023-12-14T03:53:30.091Z,11.47
2023-12-14T03:56:01.622Z,9.30
2023-12-14T03:58:31.567Z,11.30
2023-12-14T04:01:01.428Z,9.50
2023-12-14T04:03:31.402Z,10.57
2023-12-14T04:06:01.295Z,14.43
2023-12-14T04:08:33.745Z,10.37
2023-12-14T04:11:03.567Z,10.53
2023-12-14T04:13:33.418Z,10.63
2023-12-14T04:16:03.846Z,11.53
2023-12-14T04:18:33.798Z,8.43
2023-12-14T04:21:03.742Z,9.13
2023-12-14T04:23:36.210Z,8.57
2023-12-14T04:26:06.316Z,8.00
2023-12-14T04:28:36.181Z,8.50
2023-12-14T04:31:06.180Z,12.30
2023-12-14T04:33:36.060Z,8.47
2023-12-14T04:36:06.031Z,8.40
2023-12-14T04:38:38.449Z,8.20
2023-12-14T04:41:08.548Z,12.50
2023-12-14T04:43:38.428Z,10.47
2023-12-14T04:46:09.339Z,16.40
2023-12-14T04:48:40.312Z,10.10
2023-12-14T04:51:15.477Z,9.53
2023-12-14T04:53:47.851Z,9.00
2023-12-14T04:56:17.793Z,11.40
2023-12-14T04:58:47.655Z,10.20
2023-12-14T05:01:17.822Z,7.57
2023-12-14T05:03:47.668Z,9.30
2023-12-14T05:06:17.632Z,9.93
2023-12-14T05:08:50.014Z,7.30
2023-12-14T05:11:19.895Z,8.57
2023-12-14T05:13:49.720Z,11.77
2023-12-14T05:16:19.591Z,9.50
2023-12-14T05:18:50.190Z,12.20
2023-12-14T05:21:21.362Z,12.03
2023-12-14T05:23:54.757Z,10.13
2023-12-14T05:26:24.569Z,9.97
2023-12-14T05:28:55.254Z,11.93
2023-12-14T05:31:25.191Z,9.53
2023-12-14T05:33:55.212Z,11.37
2023-12-14T05:36:25.057Z,13.83
2023-12-14T05:38:57.435Z,13.40
2023-12-14T05:41:27.217Z,13.97
2023-12-14T05:43:57.111Z,16.13
2023-12-14T05:46:27.495Z,10.70
2023-12-14T05:48:57.312Z,10.97
2023-12-14T05:51:31.443Z,14.17
2023-12-14T05:54:03.939Z,11.57
2023-12-14T05:56:34.328Z,7.97
2023-12-14T05:59:04.954Z,13.93
2023-12-14T06:01:34.886Z,10.40
2023-12-14T06:04:04.854Z,10.20
2023-12-14T06:06:34.717Z,11.77
2023-12-14T06:09:08.571Z,9.60
2023-12-14T06:11:38.451Z,8.67
2023-12-14T06:14:08.334Z,9.20
2023-12-14T06:16:38.204Z,8.20
2023-12-14T06:19:08.266Z,9.50
2023-12-14T06:21:38.146Z,9.53
2023-12-14T06:24:11.116Z,10.53
2023-12-14T06:26:44.963Z,9.30
2023-12-14T06:29:15.950Z,8.10
2023-12-14T06:31:45.899Z,9.20
2023-12-14T06:34:15.809Z,8.20
2023-12-14T06:36:46.821Z,8.03
2023-12-14T06:39:20.791Z,10.87
2023-12-14T06:41:50.714Z,10.00
2023-12-14T06:44:20.540Z,14.53
2023-12-14T06:46:50.453Z,8.10
2023-12-14T06:49:20.255Z,5.83
2023-12-14T06:51:50.070Z,9.77
2023-12-14T06:54:22.595Z,8.50
2023-12-14T06:56:52.379Z,8.73
2023-12-14T06:59:22.222Z,8.53
2023-12-14T07:01:53.300Z,8.73
2023-12-14T07:04:23.371Z,12.20
2023-12-14T07:06:57.710Z,9.77
2023-12-14T07:09:30.461Z,9.17
2023-12-14T07:12:02.610Z,7.27
2023-12-14T07:14:32.461Z,9.00
2023-12-14T07:17:02.271Z,9.03
2023-12-14T07:19:33.305Z,8.67
2023-12-14T07:22:03.323Z,12.23
2023-12-14T07:24:40.957Z,9.63
2023-12-14T07:27:18.894Z,9.60
2023-12-14T07:29:48.662Z,9.67
2023-12-14T07:32:19.501Z,10.13
2023-12-14T07:34:49.361Z,9.03
2023-12-14T07:37:19.396Z,9.47
2023-12-14T07:39:51.847Z,7.97
2023-12-14T07:42:22.469Z,12.23
2023-12-14T07:44:52.247Z,11.43
2023-12-14T07:47:22.385Z,9.27
2023-12-14T07:49:52.227Z,9.80
2023-12-14T07:52:22.031Z,9.40
2023-12-14T07:54:54.485Z,10.90
2023-12-14T07:57:25.032Z,9.67
2023-12-14T07:59:54.836Z,12.43
2023-12-14T08:02:24.699Z,10.33
2023-12-14T08:04:54.576Z,9.70
2023-12-14T08:07:24.391Z,9.43
2023-12-14T08:09:56.736Z,10.00
2023-12-14T08:12:27.069Z,6.77
2023-12-14T08:14:56.892Z,10.80
2023-12-14T08:17:27.895Z,8.50
2023-12-14T08:19:57.811Z,8.87
2023-12-14T08:22:27.619Z,7.40
2023-12-14T08:25:00.000Z,7.07
2023-12-14T08:27:29.978Z,6.67
2023-12-14T08:29:59.799Z,8.27
2023-12-14T08:32:29.607Z,6.47
2023-12-14T08:34:59.451Z,8.53
2023-12-14T08:37:29.219Z,6.10
2023-12-14T08:40:01.749Z,5.33
2023-12-14T08:42:32.237Z,5.47
2023-12-14T08:45:02.125Z,6.63
2023-12-14T08:47:31.937Z,7.57
2023-12-14T08:50:01.808Z,7.00
2023-12-14T08:52:31.610Z,10.33
2023-12-14T08:55:04.022Z,5.37
2023-12-14T08:57:33.879Z,5.63
2023-12-14T09:00:05.255Z,7.73
2023-12-14T09:02:35.386Z,7.67
2023-12-14T09:05:05.995Z,6.60
2023-12-14T09:07:35.892Z,6.13
2023-12-14T09:10:09.603Z,6.83
2023-12-14T09:12:39.685Z,7.03
2023-12-14T09:15:10.703Z,5.43
2023-12-14T09:17:40.833Z,9.40
2023-12-14T09:20:13.223Z,5.33
2023-12-14T09:22:43.192Z,6.20
2023-12-14T09:25:16.723Z,10.70
2023-12-14T09:27:46.780Z,5.73
2023-12-14T09:30:18.748Z,5.07
2023-12-14T09:32:48.887Z,6.63
2023-12-14T09:35:19.432Z,4.93
2023-12-14T09:37:49.289Z,5.67
2023-12-14T09:40:23.429Z,5.37
2023-12-14T09:42:53.381Z,8.60
2023-12-14T09:45:27.857Z,4.47
2023-12-14T09:47:58.186Z,4.47
2023-12-14T09:50:28.288Z,4.17
2023-12-14T09:52:58.128Z,4.00
2023-12-14T09:55:32.506Z,7.00
2023-12-14T09:58:03.716Z,9.27
2023-12-14T10:00:37.825Z,12.20
2023-12-14T10:03:27.548Z,7.77
2023-12-14T10:05:58.654Z,15.20
2023-12-14T10:08:30.046Z,16.83
2023-12-14T10:11:02.712Z,9.40
2023-12-14T10:13:41.390Z,4.03
2023-12-14T10:16:11.538Z,3.63
2023-12-14T10:18:41.567Z,2.80
2023-12-14T10:21:11.562Z,3.10
2023-12-14T10:23:41.348Z,3.97
2023-12-14T10:26:13.838Z,3.63
2023-12-14T10:28:44.052Z,6.60
2023-12-14T10:31:14.397Z,4.40
2023-12-14T10:33:44.479Z,3.80
2023-12-14T10:36:14.834Z,5.30
2023-12-14T10:38:48.070Z,4.60
2023-12-14T10:41:21.664Z,6.00
2023-12-14T10:44:03.267Z,6.90
2023-12-14T10:46:42.146Z,4.43
2023-12-14T10:49:13.746Z,4.30
2023-12-14T10:51:45.827Z,5.03
2023-12-14T10:54:19.624Z,4.60
2023-12-14T10:56:52.071Z,7.20
2023-12-14T10:59:21.852Z,6.40
2023-12-14T11:01:56.009Z,6.80
2023-12-14T11:04:26.086Z,5.00
2023-12-14T11:06:57.406Z,6.73
2023-12-14T11:09:28.433Z,8.80
2023-12-14T11:12:05.392Z,5.03
2023-12-14T11:14:35.219Z,4.30
2023-12-14T11:17:10.403Z,3.50
2023-12-14T11:19:40.621Z,5.27
2023-12-14T11:22:26.840Z,4.60
2023-12-14T11:24:57.798Z,4.27
2023-12-14T11:27:35.585Z,5.73
2023-12-14T11:30:06.735Z,5.80
2023-12-14T11:32:36.818Z,4.03
2023-12-14T11:35:09.626Z,7.13
2023-12-14T11:37:40.063Z,4.67
2023-12-14T11:40:12.577Z,4.50
2023-12-14T11:42:47.483Z,4.40
2023-12-14T11:45:18.712Z,4.87
2023-12-14T11:47:48.681Z,5.97
2023-12-14T11:50:19.611Z,6.73
2023-12-14T11:52:49.677Z,3.47
2023-12-14T11:55:19.696Z,6.30
2023-12-14T11:57:53.985Z,11.60
2023-12-14T12:00:28.482Z,8.95
2023-12-14T12:03:11.413Z,8.53
2023-12-14T12:05:42.630Z,13.00
2023-12-14T12:08:13.614Z,2.83
2023-12-14T12:10:46.049Z,4.37
2023-12-14T12:13:20.154Z,3.97
2023-12-14T12:15:51.015Z,3.57
2023-12-14T12:18:21.255Z,4.20
2023-12-14T12:20:51.070Z,4.87
2023-12-14T12:23:20.952Z,2.60
2023-12-14T12:25:56.077Z,3.90
2023-12-14T12:28:28.487Z,3.17
2023-12-14T12:30:58.826Z,3.27
2023-12-14T12:33:28.729Z,4.27
2023-12-14T12:35:58.579Z,3.23
2023-12-14T12:38:28.397Z,4.60
2023-12-14T12:41:01.152Z,5.57
2023-12-14T12:43:33.573Z,4.20
2023-12-14T12:46:03.694Z,7.20
2023-12-14T12:48:33.922Z,4.07
2023-12-14T12:51:03.845Z,4.20
2023-12-14T12:53:34.550Z,7.27
2023-12-14T12:56:04.368Z,6.37
2023-12-14T12:58:36.754Z,4.60
2023-12-14T13:01:06.618Z,5.83
2023-12-14T13:03:36.418Z,5.40
2023-12-14T13:06:06.560Z,7.30
2023-12-14T13:08:36.443Z,4.60
2023-12-14T13:11:06.512Z,9.60
2023-12-14T13:13:38.935Z,5.93
2023-12-14T13:16:09.147Z,5.17
2023-12-14T13:18:39.031Z,5.73
2023-12-14T13:21:09.170Z,6.80
2023-12-14T13:23:39.010Z,6.57
2023-12-14T13:26:09.385Z,5.80
2023-12-14T13:28:41.901Z,7.93
2023-12-14T13:31:11.843Z,9.60
2023-12-14T13:33:41.750Z,5.63
2023-12-14T13:36:12.634Z,4.13
2023-12-14T13:38:42.631Z,5.20
2023-12-14T13:41:13.062Z,5.03
2023-12-14T13:43:47.572Z,5.50
2023-12-14T13:46:20.296Z,5.60
2023-12-14T13:48:54.337Z,6.47
2023-12-14T13:51:24.228Z,8.13
2023-12-14T13:53:54.017Z,6.60
2023-12-14T13:56:23.917Z,6.60
2023-12-14T13:58:56.533Z,7.00
2023-12-14T14:01:26.877Z,7.43
2023-12-14T14:03:56.917Z,4.60
2023-12-14T14:06:27.059Z,5.07
2023-12-14T14:08:57.009Z,6.63
2023-12-14T14:11:26.871Z,5.50
2023-12-14T14:13:59.666Z,7.33
2023-12-14T14:16:29.485Z,6.33
2023-12-14T14:19:00.072Z,4.47
2023-12-14T14:21:30.266Z,6.30
2023-12-14T14:24:00.084Z,15.90
2023-12-14T14:26:29.976Z,6.50
2023-12-14T14:29:03.415Z,6.30
2023-12-14T14:31:34.229Z,5.20
2023-12-14T14:34:04.514Z,3.20
2023-12-14T14:36:34.367Z,6.63
2023-12-14T14:39:06.017Z,4.87
2023-12-14T14:41:35.902Z,7.03
2023-12-14T14:44:08.544Z,6.17
2023-12-14T14:46:38.393Z,8.47
2023-12-14T14:49:09.249Z,10.30
2023-12-14T14:51:39.288Z,8.13
2023-12-14T14:54:09.205Z,7.87
2023-12-14T14:56:39.010Z,9.13
2023-12-14T14:59:12.454Z,15.13
2023-12-14T15:01:42.328Z,32.23
2023-12-14T15:04:12.291Z,43.27
2023-12-14T15:06:42.119Z,29.80
2023-12-14T15:09:12.468Z,27.37
2023-12-14T15:11:43.387Z,20.30
2023-12-14T15:14:15.837Z,12.90
2023-12-14T15:16:45.772Z,11.03
2023-12-14T15:19:15.690Z,19.83
2023-12-14T15:21:45.489Z,28.47
2023-12-14T15:24:15.420Z,37.67
2023-12-14T15:26:45.359Z,18.40
2023-12-14T15:29:17.878Z,13.90
2023-12-14T15:31:47.706Z,9.73
2023-12-14T15:34:19.788Z,9.53
2023-12-14T15:36:49.713Z,6.97
2023-12-14T15:39:19.568Z,9.50
2023-12-14T15:41:49.426Z,9.60
2023-12-14T15:44:22.354Z,13.80
2023-12-14T15:46:52.230Z,12.53
2023-12-14T15:49:22.118Z,18.20
2023-12-14T15:51:51.929Z,15.50
2023-12-14T15:54:21.745Z,12.13
2023-12-14T15:56:51.540Z,14.10
2023-12-14T15:59:23.985Z,13.50
2023-12-14T16:01:53.869Z,15.40
2023-12-14T16:04:23.806Z,12.30
2023-12-14T16:06:53.644Z,10.37
2023-12-14T16:09:23.488Z,14.23
2023-12-14T16:11:53.342Z,11.40
2023-12-14T16:14:25.792Z,15.37
2023-12-14T16:16:55.700Z,10.90
2023-12-14T16:19:25.514Z,13.63
2023-12-14T16:21:55.326Z,15.40
2023-12-14T16:24:26.198Z,13.70
2023-12-14T16:26:59.119Z,19.03
2023-12-14T16:29:33.937Z,16.40
2023-12-14T16:32:03.777Z,15.63
2023-12-14T16:34:34.164Z,19.17
2023-12-14T16:37:04.755Z,18.10
2023-12-14T16:39:34.584Z,17.47
2023-12-14T16:42:04.952Z,16.00
2023-12-14T16:44:38.679Z,19.07
2023-12-14T16:47:10.845Z,20.47
2023-12-14T16:49:41.686Z,17.70
2023-12-14T16:52:11.863Z,19.17
2023-12-14T16:54:43.565Z,20.00
2023-12-14T16:57:13.360Z,19.20
2023-12-14T16:59:45.863Z,18.90
2023-12-14T17:02:15.803Z,17.77
2023-12-14T17:04:45.655Z,19.57
2023-12-14T17:07:15.745Z,14.93
2023-12-14T17:09:45.585Z,11.73
2023-12-14T17:12:15.373Z,17.83
2023-12-14T17:14:47.782Z,15.57
2023-12-14T17:17:17.597Z,14.77
2023-12-14T17:19:47.446Z,17.50
2023-12-14T17:22:17.231Z,19.37
2023-12-14T17:24:47.009Z,16.77
2023-12-14T17:27:16.894Z,21.30
2023-12-14T17:29:49.252Z,20.17
2023-12-14T17:32:19.069Z,17.13
2023-12-14T17:34:48.961Z,28.53
2023-12-14T17:37:18.864Z,22.93
2023-12-14T17:39:48.764Z,24.80
2023-12-14T17:42:20.103Z,20.40
2023-12-14T17:44:53.038Z,25.67
2023-12-14T17:47:22.891Z,25.83
2023-12-14T17:49:52.754Z,21.77
2023-12-14T17:52:22.753Z,25.83
2023-12-14T17:54:53.574Z,27.43
2023-12-14T17:57:23.357Z,29.23
2023-12-14T17:59:56.018Z,25.93
2023-12-14T18:02:25.968Z,29.37
2023-12-14T18:04:55.855Z,30.10
2023-12-14T18:07:25.647Z,27.33
2023-12-14T18:09:55.435Z,36.23
2023-12-14T18:12:25.220Z,31.80
2023-12-14T18:14:57.613Z,34.33
2023-12-14T18:17:27.427Z,33.53
2023-12-14T18:19:57.872Z,39.30
2023-12-14T18:22:27.711Z,28.20
2023-12-14T18:24:57.613Z,35.20
2023-12-14T18:27:27.726Z,48.27
2023-12-14T18:30:00.431Z,34.00
2023-12-14T18:32:32.188Z,34.90
2023-12-14T18:35:02.071Z,42.53
2023-12-14T18:37:31.980Z,32.27
2023-12-14T18:40:01.749Z,37.10
2023-12-14T18:42:31.548Z,42.00
2023-12-14T18:45:04.526Z,31.80
2023-12-14T18:47:34.890Z,42.03
2023-12-14T18:50:06.545Z,34.63
2023-12-14T18:52:36.404Z,34.67
2023-12-14T18:55:07.037Z,38.20
2023-12-14T18:57:37.168Z,33.83
2023-12-14T19:00:11.403Z,29.87
2023-12-14T19:02:41.592Z,39.90
2023-12-14T19:05:12.331Z,42.10
2023-12-14T19:07:42.210Z,35.27
2023-12-14T19:10:14.741Z,43.80
2023-12-14T19:12:44.537Z,37.07
2023-12-14T19:15:17.192Z,35.17
2023-12-14T19:17:47.213Z,34.70
2023-12-14T19:20:17.726Z,35.30
2023-12-14T19:22:47.635Z,39.83
2023-12-14T19:25:17.559Z,35.60
2023-12-14T19:27:53.597Z,40.73
2023-12-14T19:30:26.218Z,42.93
2023-12-14T19:32:56.094Z,46.90
2023-12-14T19:35:26.144Z,47.90
2023-12-14T19:37:56.152Z,54.83
2023-12-14T19:40:26.540Z,41.70
2023-12-14T19:43:09.906Z,43.60
2023-12-14T19:45:42.928Z,39.13
2023-12-14T19:48:12.943Z,38.10
2023-12-14T19:50:45.002Z,33.90
2023-12-14T19:53:14.944Z,45.40
2023-12-14T19:55:45.113Z,41.67
2023-12-14T19:58:15.029Z,43.07
2023-12-14T20:00:47.582Z,37.47
2023-12-14T20:03:18.476Z,36.93
2023-12-14T20:05:48.655Z,32.63
2023-12-14T20:08:20.729Z,34.30
2023-12-14T20:10:50.797Z,32.87
2023-12-14T20:13:21.889Z,39.30
2023-12-14T20:15:54.462Z,33.77
2023-12-14T20:18:24.423Z,36.90
2023-12-14T20:20:54.380Z,32.10
2023-12-14T20:23:24.611Z,55.77
2023-12-14T20:25:55.315Z,107.40
2023-12-14T20:28:25.264Z,62.43
2023-12-14T20:30:58.062Z,41.53
2023-12-14T20:33:28.093Z,34.60
2023-12-14T20:35:58.036Z,37.87
2023-12-14T20:38:27.931Z,30.37
2023-12-14T20:40:57.869Z,35.53
2023-12-14T20:43:27.826Z,38.97
2023-12-14T20:46:00.860Z,225.97
2023-12-14T20:48:31.257Z,521.73
2023-12-14T20:51:01.188Z,448.73
2023-12-14T20:53:32.107Z,290.90
2023-12-14T20:56:02.109Z,126.00
2023-12-14T20:58:32.090Z,101.07
2023-12-14T21:01:04.623Z,77.57
2023-12-14T21:03:36.636Z,46.33
2023-12-14T21:06:06.890Z,40.33
2023-12-14T21:08:36.935Z,36.23
2023-12-14T21:11:07.136Z,38.03
2023-12-14T21:13:37.575Z,38.60
2023-12-14T21:16:11.100Z,38.80
2023-12-14T21:18:41.257Z,38.07
2023-12-14T21:21:13.110Z,40.33
2023-12-14T21:23:43.836Z,38.77
2023-12-14T21:26:17.532Z,39.47
2023-12-14T21:28:45.000Z,39.37
2023-12-14T21:31:17.490Z,39.90
2023-12-14T21:33:47.709Z,36.37
2023-12-14T21:36:17.673Z,39.50
2023-12-14T21:38:47.681Z,37.57
2023-12-14T21:41:34.366Z,37.37
2023-12-14T21:44:06.037Z,34.10
2023-12-14T21:46:45.097Z,34.33
2023-12-14T21:49:19.263Z,30.27
2023-12-14T21:51:49.552Z,33.67
2023-12-14T21:54:19.668Z,41.30
2023-12-14T21:56:49.612Z,39.77
2023-12-14T21:59:19.448Z,34.50
2023-12-14T22:01:51.912Z,40.03
2023-12-14T22:04:21.748Z,37.50
2023-12-14T22:06:52.853Z,33.90
2023-12-14T22:09:22.814Z,37.63
2023-12-14T22:11:52.944Z,35.73
2023-12-14T22:14:22.908Z,32.77
2023-12-14T22:16:55.762Z,36.80
2023-12-14T22:19:27.854Z,36.63
2023-12-14T22:21:57.719Z,37.57
2023-12-14T22:24:27.608Z,37.67
2023-12-14T22:26:57.407Z,35.07
2023-12-14T22:29:27.282Z,39.93
2023-12-14T22:31:59.906Z,38.13
2023-12-14T22:34:29.741Z,39.40
2023-12-14T22:36:59.558Z,38.90
2023-12-14T22:39:29.384Z,42.10
2023-12-14T22:41:59.192Z,39.23
2023-12-14T22:44:29.108Z,42.33
2023-12-14T22:47:01.664Z,40.40
2023-12-14T22:49:31.669Z,41.57
2023-12-14T22:52:01.506Z,43.43
2023-12-14T22:54:31.300Z,39.97
2023-12-14T22:57:01.140Z,43.67
2023-12-14T22:59:30.994Z,38.70
2023-12-14T23:02:03.784Z,42.63
2023-12-14T23:04:35.324Z,45.33
2023-12-14T23:07:05.389Z,42.30
2023-12-14T23:09:35.260Z,42.20
2023-12-14T23:12:05.182Z,42.63
2023-12-14T23:14:35.037Z,42.97
2023-12-14T23:17:07.461Z,37.93
2023-12-14T23:19:37.292Z,40.30
2023-12-14T23:22:07.232Z,37.13
2023-12-14T23:24:37.017Z,39.57
2023-12-14T23:27:07.395Z,44.30
2023-12-14T23:29:37.215Z,41.63
2023-12-14T23:32:10.132Z,41.77
2023-12-14T23:34:37.541Z,45.93
2023-12-14T23:37:07.745Z,42.27
2023-12-14T23:39:37.620Z,41.10
2023-12-14T23:42:08.027Z,47.50
2023-12-14T23:44:37.891Z,41.87
2023-12-14T23:47:10.584Z,43.60
2023-12-14T23:49:40.374Z,42.97
2023-12-14T23:52:10.146Z,47.40
2023-12-14T23:54:39.968Z,42.60
2023-12-14T23:57:09.764Z,48.70
2023-12-14T23:59:39.584Z,43.43
